createdAt,value
2022-10-11T00:05:01.683Z,101862.47
2022-10-11T00:10:14.821Z,101866.72
2022-10-11T00:15:28.646Z,101868.50
2022-10-11T00:20:41.499Z,101888.47
2022-10-11T00:26:00.532Z,101892.16
2022-10-11T00:31:16.617Z,101893.09
2022-10-11T00:36:29.980Z,101903.38
2022-10-11T00:41:45.185Z,101905.09
2022-10-11T00:47:07.392Z,101895.69
2022-10-11T00:52:31.154Z,101899.91
2022-10-11T00:57:48.458Z,101908.44
2022-10-11T01:03:02.461Z,101917.81
2022-10-11T01:08:16.099Z,101910.13
2022-10-11T01:13:35.303Z,101918.69
2022-10-11T01:19:33.655Z,101937.50
2022-10-11T01:24:50.295Z,101925.47
2022-10-11T01:30:23.282Z,101934.00
2022-10-11T01:35:49.721Z,101939.13
2022-10-11T01:41:09.109Z,101932.25
2022-10-11T01:46:24.282Z,101935.59
2022-10-11T01:51:47.105Z,101939.03
2022-10-11T01:57:32.487Z,101946.13
2022-10-11T02:03:17.696Z,101947.84
2022-10-11T02:08:44.148Z,101948.72
2022-10-11T02:14:01.892Z,101940.16
2022-10-11T02:19:18.655Z,101926.44
2022-10-11T02:24:35.834Z,101932.41
2022-10-11T02:29:52.529Z,101951.25
2022-10-11T02:35:06.336Z,101952.91
2022-10-11T02:40:29.117Z,101964.91
2022-10-11T02:45:52.556Z,101961.50
2022-10-11T02:51:13.286Z,101962.38
2022-10-11T02:56:26.419Z,101964.03
2022-10-11T03:01:39.770Z,101966.56
2022-10-11T03:06:53.264Z,101967.44
2022-10-11T03:12:07.052Z,101963.16
2022-10-11T03:17:35.497Z,101973.41
2022-10-11T03:22:49.420Z,101985.34
2022-10-11T03:28:03.164Z,101973.31
2022-10-11T03:33:17.397Z,101988.84
2022-10-11T03:38:31.634Z,101988.84
2022-10-11T03:43:46.600Z,101988.00
2022-10-11T03:48:59.719Z,101988.84
2022-10-11T03:54:13.137Z,102000.78
2022-10-11T03:59:26.442Z,102005.84
2022-10-11T04:04:39.837Z,101996.41
2022-10-11T04:09:53.396Z,102015.31
2022-10-11T04:15:07.748Z,102025.66
2022-10-11T04:20:20.097Z,102030.84
2022-10-11T04:25:33.438Z,102034.31
2022-10-11T04:30:46.996Z,102040.34
2022-10-11T04:36:00.480Z,102052.34
2022-10-11T04:41:14.761Z,102043.78
2022-10-11T04:46:27.782Z,102056.63
2022-10-11T04:51:40.504Z,102040.34
2022-10-11T04:56:53.929Z,102045.47
2022-10-11T05:02:07.495Z,102070.28
2022-10-11T05:07:22.909Z,102073.69
2022-10-11T05:12:37.963Z,102058.22
2022-10-11T05:17:50.826Z,102067.56
2022-10-11T05:23:04.181Z,102075.31
2022-10-11T05:28:17.318Z,102083.81
2022-10-11T05:33:29.439Z,102088.06
2022-10-11T05:38:43.663Z,102098.25
2022-10-11T05:43:56.174Z,102099.88
2022-10-11T05:49:09.716Z,102094.75
2022-10-11T05:54:23.203Z,102113.56
2022-10-11T05:59:36.604Z,102128.19
2022-10-11T06:04:49.748Z,102137.75
2022-10-11T06:10:04.428Z,102128.34
2022-10-11T06:15:17.456Z,102142.06
2022-10-11T06:20:47.629Z,102137.78
2022-10-11T06:26:32.474Z,102145.47
2022-10-11T06:31:45.676Z,102154.84
2022-10-11T06:37:14.239Z,102154.88
2022-10-11T06:42:49.211Z,102154.91
2022-10-11T06:48:15.778Z,102179.72
2022-10-11T06:53:55.788Z,102176.28
2022-10-11T06:59:26.042Z,102184.75
2022-10-11T07:04:55.715Z,102196.63
2022-10-11T07:10:27.100Z,102185.34
2022-10-11T07:15:53.933Z,102210.91
2022-10-11T07:21:39.180Z,102206.41
2022-10-11T07:27:15.448Z,102227.44
2022-10-11T07:32:51.022Z,102237.00
2022-10-11T07:38:18.003Z,102231.91
2022-10-11T07:43:47.916Z,102230.13
2022-10-11T07:49:21.535Z,102251.47
2022-10-11T07:55:18.665Z,102242.78
2022-10-11T08:00:45.822Z,102252.28
2022-10-11T08:06:15.367Z,102248.00
2022-10-11T08:11:45.020Z,102252.19
2022-10-11T08:17:23.721Z,102257.19
2022-10-11T08:23:10.931Z,102269.03
2022-10-11T08:28:39.946Z,102260.31
2022-10-11T08:34:11.417Z,102274.63
2022-10-11T08:39:43.348Z,102269.94
2022-10-11T08:45:30.051Z,102273.50
2022-10-11T08:51:31.444Z,102281.28
2022-10-11T08:56:52.294Z,102281.16
2022-10-11T09:02:43.912Z,102293.06
2022-10-11T09:08:32.202Z,102277.50
2022-10-11T09:14:14.662Z,102291.84
2022-10-11T09:19:54.425Z,102295.66
2022-10-11T09:25:24.108Z,102298.78
2022-10-11T09:30:50.485Z,102305.38
2022-10-11T09:36:24.193Z,102328.44
2022-10-11T09:41:55.215Z,102316.81
2022-10-11T09:47:26.035Z,102303.38
2022-10-11T09:52:55.905Z,102334.88
2022-10-11T09:58:33.450Z,102310.28
2022-10-11T10:04:16.863Z,102332.66
2022-10-11T10:09:37.841Z,102317.53
2022-10-11T10:15:07.129Z,102327.66
2022-10-11T10:20:33.788Z,102337.22
2022-10-11T10:26:23.311Z,102344.44
2022-10-11T10:32:12.849Z,102338.59
2022-10-11T10:37:34.909Z,102349.22
2022-10-11T10:42:55.720Z,102360.69
2022-10-11T10:49:34.498Z,102350.19
2022-10-11T10:55:17.791Z,102363.56
2022-10-11T11:00:44.180Z,102363.66
2022-10-11T11:06:12.128Z,102381.00
2022-10-11T11:11:57.974Z,102382.63
2022-10-11T11:17:44.334Z,102383.88
2022-10-11T11:23:29.153Z,102384.56
2022-10-11T11:29:23.654Z,102393.38
2022-10-11T11:34:53.102Z,102405.84
2022-10-11T11:40:18.754Z,102391.59
2022-10-11T11:45:51.649Z,102403.66
2022-10-11T11:51:18.625Z,102394.50
2022-10-11T11:57:02.440Z,102386.94
2022-10-11T12:02:42.603Z,102393.97
2022-10-11T12:08:08.205Z,102393.88
2022-10-11T12:13:34.795Z,102391.28
2022-10-11T12:19:02.722Z,102393.84
2022-10-11T12:24:24.601Z,102388.50
2022-10-11T12:29:48.371Z,102398.56
2022-10-11T12:35:31.244Z,102395.94
2022-10-11T12:41:16.843Z,102408.72
2022-10-11T12:46:59.481Z,102409.84
2022-10-11T12:53:18.762Z,102396.97
2022-10-11T12:58:45.007Z,102391.44
2022-10-11T13:04:10.226Z,102384.28
2022-10-11T13:09:33.460Z,102389.31
2022-10-11T13:15:05.351Z,102382.34
2022-10-11T13:20:30.422Z,102394.22
2022-10-11T13:25:51.723Z,102387.66
2022-10-11T13:31:12.563Z,102402.97
2022-10-11T13:36:33.464Z,102390.38
2022-10-11T13:41:54.548Z,102407.41
2022-10-11T13:47:18.091Z,102403.50
2022-10-11T13:52:59.299Z,102403.28
2022-10-11T13:58:43.999Z,102406.06
2022-10-11T14:04:07.741Z,102406.81
2022-10-11T14:09:38.488Z,102397.81
2022-10-11T14:15:00.628Z,102393.25
2022-10-11T14:20:27.291Z,102396.38
2022-10-11T14:25:52.823Z,102393.13
2022-10-11T14:31:13.208Z,102405.50
2022-10-11T14:36:33.711Z,102390.06
2022-10-11T14:41:54.528Z,102402.25
2022-10-11T14:47:16.738Z,102390.28
2022-10-11T14:52:36.971Z,102405.19
2022-10-11T14:57:58.212Z,102391.44
2022-10-11T15:03:18.855Z,102403.44
2022-10-11T15:08:39.427Z,102407.75
2022-10-11T15:13:59.947Z,102408.69
2022-10-11T15:19:23.766Z,102400.03
2022-10-11T15:24:49.337Z,102405.31
2022-10-11T15:30:23.778Z,102397.81
2022-10-11T15:35:44.262Z,102403.94
2022-10-11T15:41:04.943Z,102396.97
2022-10-11T15:46:25.570Z,102399.88
2022-10-11T15:51:46.034Z,102400.69
2022-10-11T15:57:06.710Z,102391.28
2022-10-11T16:02:27.669Z,102387.25
2022-10-11T16:07:48.283Z,102395.94
2022-10-11T18:41:44.826Z,102425.84
2022-10-11T18:47:06.032Z,102431.00
2022-10-11T18:52:26.695Z,102424.09
2022-10-11T18:58:12.128Z,102424.06
2022-10-11T19:03:35.337Z,102411.22
2022-10-11T19:09:01.402Z,102410.38
2022-10-11T19:14:25.825Z,102416.38
2022-10-11T19:19:48.134Z,102410.38
2022-10-11T19:25:08.992Z,102412.13
2022-10-11T19:30:31.724Z,102404.41
2022-10-11T19:35:58.518Z,102404.44
2022-10-11T19:41:19.903Z,102402.72
2022-10-11T19:46:58.323Z,102409.56
2022-10-11T19:52:20.583Z,102416.44
2022-10-11T19:57:41.516Z,102409.56
2022-10-11T20:03:02.232Z,102408.69
2022-10-11T20:08:23.275Z,102406.97
2022-10-11T20:13:44.278Z,102403.53
2022-10-11T20:19:04.763Z,102400.94
2022-10-11T20:24:27.308Z,102409.50
2022-10-11T20:29:48.771Z,102418.94
2022-10-11T20:35:10.136Z,102412.06
2022-10-11T20:40:30.928Z,102418.06
2022-10-11T20:46:09.189Z,102414.59
2022-10-11T20:51:31.352Z,102415.41
2022-10-11T20:56:51.720Z,102417.97
2022-10-11T21:02:15.419Z,102414.53
2022-10-11T21:07:39.277Z,102412.84
2022-10-11T21:13:00.046Z,102417.09
2022-10-11T21:18:20.852Z,102415.38
2022-10-11T21:23:41.885Z,102424.78
2022-10-11T21:29:04.067Z,102419.63
2022-10-11T21:34:24.543Z,102413.56
2022-10-11T21:39:45.292Z,102413.59
2022-10-11T21:45:06.220Z,102406.72
2022-10-11T21:50:27.631Z,102414.41
2022-10-11T21:55:48.039Z,102412.69
2022-10-11T22:01:10.742Z,102417.81
2022-10-11T22:06:31.435Z,102409.22
2022-10-11T22:11:51.919Z,102404.94
2022-10-11T22:17:12.439Z,102409.25
2022-10-11T22:22:33.255Z,102413.53
2022-10-11T22:27:54.169Z,102407.50
2022-10-11T22:33:16.893Z,102404.97
2022-10-11T22:38:41.991Z,102414.44
2022-10-11T22:44:03.055Z,102417.97
2022-10-11T22:49:23.276Z,102413.75
2022-10-11T22:54:43.762Z,102413.78
2022-10-11T23:00:05.223Z,102406.94
2022-10-11T23:05:26.212Z,102415.53
2022-10-11T23:10:46.618Z,102414.69
2022-10-11T23:16:09.935Z,102409.56
2022-10-11T23:21:30.657Z,102411.28
2022-10-11T23:26:50.983Z,102401.84
2022-10-11T23:32:11.750Z,102403.56
2022-10-11T23:37:32.527Z,102398.44
2022-10-11T23:42:53.074Z,102405.31
2022-10-11T23:48:13.816Z,102403.59
2022-10-11T23:53:35.572Z,102395.00
2022-10-11T23:58:56.121Z,102393.31
